Time;durP1;ratioP1;P1;durP2;ratioP2;P2;SDS_P1;SDS_P2;PMS_P1;PMS_P2;Temp;Humidity;BMP_temperature;BMP_pressure;BME280_temperature;BME280_humidity;BME280_pressure;Samples;Min_cycle;Max_cycle;Signal;HPM_P1;HPM_P2
2023/06/24 00:01:18;;;;;;;24.88;18.15;;;;;;;-147.65;100.00;57646.63;10430259;28;20068;-80
2023/06/24 00:06:22;;;;;;;20.75;16.92;;;;;;;-147.65;100.00;57646.63;10443786;28;20376;-80
2023/06/24 00:11:22;;;;;;;20.70;17.00;;;;;;;-147.65;100.00;57646.63;10393085;28;20045;-80
2023/06/24 00:16:26;;;;;;;20.40;17.13;;;;;;;-147.65;100.00;57646.63;10424744;28;20042;-80
2023/06/24 00:21:29;;;;;;;23.05;18.80;;;;;;;-147.65;100.00;57646.63;10433325;28;20148;-80
2023/06/24 00:26:31;;;;;;;19.85;16.08;;;;;;;-147.65;100.00;57646.63;10433365;28;20041;-79
2023/06/24 00:31:32;;;;;;;22.95;19.90;;;;;;;-147.65;100.00;57646.63;10393425;28;20037;-80
2023/06/24 00:36:32;;;;;;;21.55;18.77;;;;;;;-147.65;100.00;57646.63;10391188;28;20497;-80
2023/06/24 00:41:33;;;;;;;23.23;19.90;;;;;;;-147.65;100.00;57646.63;10353763;28;20046;-79
2023/06/24 00:46:34;;;;;;;22.77;19.10;;;;;;;-147.65;100.00;57646.63;10398298;28;20041;-80
2023/06/24 00:51:36;;;;;;;30.70;22.10;;;;;;;-147.65;100.00;57646.63;10441442;28;20102;-79
2023/06/24 00:56:38;;;;;;;27.48;22.10;;;;;;;-147.65;100.00;57646.63;10441451;28;20025;-79
2023/06/24 01:01:38;;;;;;;;;;;;;;;-147.65;100.00;57646.63;10401597;28;20084;-80
2023/06/24 01:06:43;;;;;;;25.95;22.77;;;;;;;-147.65;100.00;57646.63;10433328;28;19917;-80
2023/06/24 01:11:43;;;;;;;30.90;23.70;;;;;;;-147.65;100.00;57646.63;10384939;28;20558;-80
2023/06/24 01:16:46;;;;;;;29.85;23.33;;;;;;;-147.65;100.00;57646.63;10439068;28;20074;-80
2023/06/24 01:22:15;;;;;;;30.45;24.15;;;;;;;-147.65;100.00;57646.63;10395348;28;20042;-80
2023/06/24 01:27:44;;;;;;;30.27;24.20;;;;;;;-147.65;100.00;57646.63;10398856;28;20049;-80
2023/06/24 01:32:47;;;;;;;29.45;24.80;;;;;;;-147.65;100.00;57646.63;10399942;28;20091;-80
2023/06/24 01:37:51;;;;;;;38.45;27.92;;;;;;;-147.65;100.00;57646.63;10416372;28;20049;-80
2023/06/24 01:42:51;;;;;;;40.70;30.38;;;;;;;-147.65;100.00;57646.63;10376488;28;20037;-80
2023/06/24 01:48:00;;;;;;;39.40;28.25;;;;;;;-147.65;100.00;57646.63;10420653;28;20037;-79
2023/06/24 01:53:03;;;;;;;37.25;26.77;;;;;;;-147.65;100.00;57646.63;10366826;28;20033;-80
2023/06/24 01:58:05;;;;;;;35.88;29.63;;;;;;;-147.65;100.00;57646.63;10389177;28;20176;-80
2023/06/24 02:03:06;;;;;;;38.60;30.25;;;;;;;-147.65;100.00;57646.63;10406355;28;20045;-79
2023/06/24 02:08:08;;;;;;;40.90;31.33;;;;;;;-147.65;100.00;57646.63;10398262;28;20467;-80
2023/06/24 02:13:09;;;;;;;;;;;;;;;-147.65;100.00;57646.63;10424172;28;20040;-79
2023/06/24 02:18:09;;;;;;;38.58;30.65;;;;;;;-147.65;100.00;57646.63;10406621;28;19921;-79
2023/06/24 02:23:10;;;;;;;38.10;29.02;;;;;;;-147.65;100.00;57646.63;10428760;28;20132;-81
2023/06/24 02:28:11;;;;;;;38.40;31.02;;;;;;;-147.65;100.00;57646.63;10393790;28;20033;-80
2023/06/24 02:33:11;;;;;;;41.50;31.80;;;;;;;-147.65;100.00;57646.63;10390879;28;20048;-80
2023/06/24 02:38:12;;;;;;;44.88;34.28;;;;;;;-147.65;100.00;57646.63;10416655;28;20041;-80
2023/06/24 02:43:13;;;;;;;48.60;36.13;;;;;;;-147.65;100.00;57646.63;10405565;28;20116;-80
2023/06/24 02:48:14;;;;;;;47.45;35.70;;;;;;;-147.65;100.00;57646.63;10413186;28;20041;-80
2023/06/24 02:53:14;;;;;;;42.65;32.63;;;;;;;-147.65;100.00;57646.63;10429071;28;20496;-80
2023/06/24 02:58:15;;;;;;;47.42;31.60;;;;;;;-147.65;100.00;57646.63;10402377;28;20489;-80
2023/06/24 03:03:15;;;;;;;42.63;33.03;;;;;;;-147.65;100.00;57646.63;10405321;28;20098;-79
2023/06/24 03:08:16;;;;;;;42.33;33.08;;;;;;;-147.65;100.00;57646.63;10405127;28;20075;-80
2023/06/24 03:13:16;;;;;;;40.60;32.08;;;;;;;-147.65;100.00;57646.63;10385580;28;20116;-80
2023/06/24 03:18:17;;;;;;;41.03;32.78;;;;;;;-147.65;100.00;57646.63;10412155;28;20124;-79
2023/06/24 03:23:18;;;;;;;37.78;30.63;;;;;;;-147.65;100.00;57646.63;10368583;28;20061;-79
2023/06/24 03:28:18;;;;;;;48.58;34.70;;;;;;;-147.65;100.00;57646.63;10392793;28;20037;-80
2023/06/24 03:33:19;;;;;;;43.63;32.47;;;;;;;-147.65;100.00;57646.63;10403033;28;20033;-79
2023/06/24 03:38:20;;;;;;;49.15;35.78;;;;;;;-147.65;100.00;57646.63;10415802;28;20029;-81
2023/06/24 03:43:21;;;;;;;48.87;34.43;;;;;;;-147.65;100.00;57646.63;10441269;28;20051;-80
2023/06/24 03:48:22;;;;;;;49.58;36.22;;;;;;;-147.65;100.00;57646.63;10408795;28;20485;-80
2023/06/24 03:53:22;;;;;;;48.67;35.08;;;;;;;-147.65;100.00;57646.63;10414122;28;20045;-79
2023/06/24 03:58:23;;;;;;;45.85;35.10;;;;;;;-147.65;100.00;57646.63;10430171;28;20069;-79
2023/06/24 04:03:25;;;;;;;49.63;36.78;;;;;;;-147.65;100.00;57646.63;10414181;28;20037;-78
2023/06/24 04:08:29;;;;;;;51.70;38.15;;;;;;;-147.65;100.00;57646.63;10430796;28;20069;-79
2023/06/24 04:13:29;;;;;;;52.08;38.40;;;;;;;-147.65;100.00;57646.63;10412126;28;20049;-81
2023/06/24 04:18:30;;;;;;;53.80;37.63;;;;;;;-147.65;100.00;57646.63;10412545;28;20555;-78
2023/06/24 04:23:30;;;;;;;50.53;35.40;;;;;;;-147.65;100.00;57646.63;10413666;28;20045;-79
2023/06/24 04:28:31;;;;;;;46.97;35.88;;;;;;;-147.65;100.00;57646.63;10423036;28;20040;-78
2023/06/24 04:33:31;;;;;;;49.55;37.60;;;;;;;-147.65;100.00;57646.63;10441072;28;20053;-79
2023/06/24 04:38:32;;;;;;;43.38;33.45;;;;;;;-147.65;100.00;57646.63;10365249;28;20458;-79
2023/06/24 04:43:32;;;;;;;38.58;31.85;;;;;;;-147.65;100.00;57646.63;10379503;28;20090;-79
2023/06/24 04:48:33;;;;;;;40.28;30.10;;;;;;;-147.65;100.00;57646.63;10407077;28;20042;-80
2023/06/24 04:53:33;;;;;;;35.38;25.35;;;;;;;-147.65;100.00;57646.63;10387758;28;21258;-80
2023/06/24 04:58:34;;;;;;;37.58;28.40;;;;;;;-147.65;100.00;57646.63;10379001;28;20464;-80
2023/06/24 05:03:34;;;;;;;25.25;22.00;;;;;;;-147.65;100.00;57646.63;10398294;28;20438;-80
2023/06/24 05:08:35;;;;;;;23.23;19.13;;;;;;;-147.65;100.00;57646.63;10396972;28;20486;-81
2023/06/24 05:13:37;;;;;;;22.23;18.25;;;;;;;-147.65;100.00;57646.63;10420262;28;20041;-80
2023/06/24 05:18:37;;;;;;;21.07;16.47;;;;;;;-147.65;100.00;57646.63;10421003;28;20025;-80
2023/06/24 05:23:38;;;;;;;18.05;15.25;;;;;;;-147.65;100.00;57646.63;10389905;28;20068;-77
2023/06/24 05:28:38;;;;;;;21.10;15.55;;;;;;;-147.65;100.00;57646.63;10352995;28;20033;-79
2023/06/24 05:33:39;;;;;;;32.03;16.65;;;;;;;-147.65;100.00;57646.63;10407411;28;20037;-79
2023/06/24 05:38:43;;;;;;;15.80;13.68;;;;;;;-147.65;100.00;57646.63;10431697;28;20128;-79
2023/06/24 05:43:43;;;;;;;15.85;12.85;;;;;;;-147.65;100.00;57646.63;10382536;28;20041;-83
2023/06/24 05:48:44;;;;;;;17.20;12.50;;;;;;;-147.65;100.00;57646.63;10430116;28;20082;-80
2023/06/24 05:53:44;;;;;;;17.03;13.57;;;;;;;-147.65;100.00;57646.63;10436525;28;20074;-78
2023/06/24 05:58:45;;;;;;;15.10;11.87;;;;;;;-147.65;100.00;57646.63;10423595;28;20159;-78
2023/06/24 06:03:45;;;;;;;13.20;10.47;;;;;;;-147.65;100.00;57646.63;10427533;28;20163;-80
2023/06/24 06:08:47;;;;;;;12.67;10.67;;;;;;;-147.65;100.00;57646.63;10398564;28;20067;-80
2023/06/24 06:13:47;;;;;;;19.67;12.80;;;;;;;-147.65;100.00;57646.63;10399161;28;20048;-80
2023/06/24 06:18:48;;;;;;;15.13;11.53;;;;;;;-147.65;100.00;57646.63;10400520;28;20051;-80
2023/06/24 06:23:48;;;;;;;12.40;9.77;;;;;;;-147.65;100.00;57646.63;10403474;28;20041;-80
2023/06/24 06:28:49;;;;;;;17.60;10.27;;;;;;;-147.65;100.00;57646.63;10389032;28;20037;-80
2023/06/24 06:33:50;;;;;;;16.35;9.88;;;;;;;-147.65;100.00;57646.63;10405763;28;20183;-80
2023/06/24 06:38:50;;;;;;;13.70;8.83;;;;;;;-147.65;100.00;57646.63;10419075;28;20168;-80
2023/06/24 06:43:52;;;;;;;13.03;9.00;;;;;;;-147.65;100.00;57646.63;10427029;28;20116;-78
2023/06/24 06:48:52;;;;;;;13.60;9.43;;;;;;;-147.65;100.00;57646.63;10433043;28;20551;-78
2023/06/24 06:53:53;;;;;;;14.33;11.70;;;;;;;-147.65;100.00;57646.63;10399447;28;20090;-79
2023/06/24 06:58:53;;;;;;;18.08;11.02;;;;;;;-147.65;100.00;57646.63;10408417;28;20427;-79
2023/06/24 07:03:54;;;;;;;15.70;12.27;;;;;;;-147.65;100.00;57646.63;10445880;28;20118;-79
2023/06/24 07:08:54;;;;;;;15.73;10.67;;;;;;;-147.65;100.00;57646.63;10370305;28;20072;-78
2023/06/24 07:13:55;;;;;;;27.13;21.02;;;;;;;-147.65;100.00;57646.63;10406667;28;20063;-78
2023/06/24 07:18:55;;;;;;;26.98;19.58;;;;;;;-147.65;100.00;57646.63;10442956;28;20485;-79
2023/06/24 07:23:56;;;;;;;13.30;10.15;;;;;;;-147.65;100.00;57646.63;10428177;28;20033;-79
2023/06/24 07:28:57;;;;;;;12.45;10.73;;;;;;;-147.65;100.00;57646.63;10426420;28;20079;-79
2023/06/24 07:33:58;;;;;;;17.00;11.68;;;;;;;-147.65;100.00;57646.63;10442638;28;20044;-79
2023/06/24 07:38:58;;;;;;;20.02;12.02;;;;;;;-147.65;100.00;57646.63;10426149;28;20053;-78
2023/06/24 07:43:59;;;;;;;;;;;;;;;-147.65;100.00;57646.63;10403497;28;20370;-78
2023/06/24 07:48:59;;;;;;;15.03;12.07;;;;;;;-147.65;100.00;57646.63;10413468;28;20007;-78
2023/06/24 07:54:00;;;;;;;;;;;;;;;-147.65;100.00;57646.63;10444025;28;20037;-79
2023/06/24 07:59:00;;;;;;;13.77;8.80;;;;;;;-147.65;100.00;57646.63;10425547;28;19928;-83
2023/06/24 08:04:00;;;;;;;;;;;;;;;-147.65;100.00;57646.63;10444017;28;20092;-84
2023/06/24 08:09:01;;;;;;;9.13;7.10;;;;;;;-147.65;100.00;57646.63;10413108;28;19986;-80
2023/06/24 08:14:01;;;;;;;;;;;;;;;-147.65;100.00;57646.63;10402057;28;20052;-80
2023/06/24 08:19:02;;;;;;;10.20;4.60;;;;;;;-147.65;100.00;57646.63;10414431;28;19920;-82
2023/06/24 08:24:03;;;;;;;;;;;;;;;-147.65;100.00;57646.63;10403076;28;20041;-80
2023/06/24 08:29:06;;;;;;;5.65;4.00;;;;;;;-147.65;100.00;57646.63;10400315;28;19929;-78
2023/06/24 08:34:07;;;;;;;6.30;4.05;;;;;;;-147.65;100.00;57646.63;10402860;28;20110;-80
2023/06/24 08:39:07;;;;;;;;;;;;;;;-147.65;100.00;57646.63;10400187;28;20500;-81
2023/06/24 08:44:08;;;;;;;5.87;3.90;;;;;;;-147.65;100.00;57646.63;10401945;28;20345;-80
2023/06/24 08:49:24;;;;;;;5.68;3.67;;;;;;;-147.65;100.00;57646.63;10359354;28;20061;-80
2023/06/24 08:54:24;;;;;;;7.72;3.05;;;;;;;-147.65;100.00;57646.63;10402050;28;20046;-80
2023/06/24 08:59:25;;;;;;;4.05;2.83;;;;;;;-147.65;100.00;57646.63;10400215;28;20057;-80
2023/06/24 09:04:25;;;;;;;5.82;2.75;;;;;;;-147.65;100.00;57646.63;10402503;28;20026;-80
2023/06/24 09:09:28;;;;;;;4.15;2.63;;;;;;;-147.65;100.00;57646.63;10402266;28;20545;-80
2023/06/24 09:14:29;;;;;;;7.07;3.80;;;;;;;-147.65;100.00;57646.63;10401958;28;20044;-80
2023/06/24 09:19:30;;;;;;;4.38;2.42;;;;;;;-147.65;100.00;57646.63;10400096;28;20048;-80
2023/06/24 09:24:30;;;;;;;;;;;;;;;-147.65;100.00;57646.63;10384010;28;20038;-80
2023/06/24 09:29:32;;;;;;;3.63;2.17;;;;;;;-147.65;100.00;57646.63;10433381;28;19924;-79
2023/06/24 09:34:33;;;;;;;5.93;3.08;;;;;;;-147.65;100.00;57646.63;10401256;28;20037;-80
2023/06/24 09:39:37;;;;;;;3.90;2.42;;;;;;;-147.65;100.00;57646.63;10399133;28;20038;-80
2023/06/24 09:44:38;;;;;;;3.50;1.92;;;;;;;-147.65;100.00;57646.63;10400706;28;20378;-80
2023/06/24 09:49:38;;;;;;;;;;;;;;;-147.65;100.00;57646.63;10415078;28;20030;-80
2023/06/24 09:54:39;;;;;;;3.70;2.40;;;;;;;-147.65;100.00;57646.63;10407556;28;19917;-81
2023/06/24 09:59:39;;;;;;;4.88;2.08;;;;;;;-147.65;100.00;57646.63;10364525;28;20117;-80
2023/06/24 10:04:39;;;;;;;;;;;;;;;-147.65;100.00;57646.63;10367422;28;20042;-80
2023/06/24 10:09:40;;;;;;;5.97;2.37;;;;;;;-147.65;100.00;57646.63;10399663;28;20350;-80
2023/06/24 10:14:40;;;;;;;;;;;;;;;-147.65;100.00;57646.63;10367205;28;20466;-80
2023/06/24 10:19:41;;;;;;;3.77;1.70;;;;;;;-147.65;100.00;57646.63;10367724;28;20089;-79
2023/06/24 10:24:42;;;;;;;;;;;;;;;-147.65;100.00;57646.63;10382121;28;20096;-79
2023/06/24 10:29:49;;;;;;;3.33;1.77;;;;;;;-147.65;100.00;57646.63;10366933;28;19925;-79
2023/06/24 10:34:56;;;;;;;2.67;1.42;;;;;;;-147.65;100.00;57646.63;10381660;28;20037;-79
2023/06/24 10:40:00;;;;;;;3.70;2.33;;;;;;;-147.65;100.00;57646.63;10407887;28;20038;-80
2023/06/24 10:45:10;;;;;;;4.32;2.28;;;;;;;-147.65;100.00;57646.63;10389143;28;20037;-80
2023/06/24 10:50:16;;;;;;;2.67;1.67;;;;;;;-147.65;100.00;57646.63;10407450;28;20029;-79
2023/06/24 10:55:17;;;;;;;2.85;1.33;;;;;;;-147.65;100.00;57646.63;10406843;28;20148;-79
2023/06/24 11:00:17;;;;;;;3.17;1.50;;;;;;;-147.65;100.00;57646.63;10389336;28;20047;-80
2023/06/24 11:05:18;;;;;;;;;;;;;;;-147.65;100.00;57646.63;10406890;28;20045;-80
2023/06/24 11:10:18;;;;;;;3.73;1.57;;;;;;;-147.65;100.00;57646.63;10405023;28;19972;-80
2023/06/24 11:15:19;;;;;;;;;;;;;;;-147.65;100.00;57646.63;10410904;28;20037;-80
2023/06/24 11:20:20;;;;;;;3.60;1.83;;;;;;;-147.65;100.00;57646.63;10405665;28;19944;-80
2023/06/24 11:25:21;;;;;;;;;;;;;;;-147.65;100.00;57646.63;10405980;28;20045;-78
2023/06/24 11:30:22;;;;;;;2.92;1.73;;;;;;;-147.65;100.00;57646.63;10405232;28;19925;-79
2023/06/24 11:35:22;;;;;;;;;;;;;;;-147.65;100.00;57646.63;10406420;28;20037;-78
2023/06/24 11:40:23;;;;;;;3.63;1.83;;;;;;;-147.65;100.00;57646.63;10403450;28;20040;-79
2023/06/24 11:45:24;;;;;;;3.20;1.65;;;;;;;-147.65;100.00;57646.63;10403419;28;20404;-79
2023/06/24 11:50:27;;;;;;;3.80;2.80;;;;;;;-147.65;100.00;57646.63;10404123;28;20091;-79
2023/06/24 11:55:28;;;;;;;4.65;2.22;;;;;;;-147.65;100.00;57646.63;10403388;28;20042;-79
2023/06/24 12:00:29;;;;;;;;;;;;;;;-147.65;100.00;57646.63;10403621;28;20041;-79
2023/06/24 12:05:31;;;;;;;3.47;1.83;;;;;;;-147.65;100.00;57646.63;10404262;28;19974;-79
2023/06/24 12:10:33;;;;;;;4.53;2.55;;;;;;;-147.65;100.00;57646.63;10405023;28;20268;-79
2023/06/24 12:15:33;;;;;;;2.65;1.70;;;;;;;-147.65;100.00;57646.63;10403457;28;20029;-80
2023/06/24 12:20:37;;;;;;;;;;;;;;;-147.65;100.00;57646.63;10403341;28;20594;-80
2023/06/24 12:25:40;;;;;;;3.13;1.65;;;;;;;-147.65;100.00;57646.63;10403813;28;19979;-80
2023/06/24 12:30:40;;;;;;;3.65;1.83;;;;;;;-147.65;100.00;57646.63;10403136;28;20087;-80
2023/06/24 12:35:40;;;;;;;;;;;;;;;-147.65;100.00;57646.63;10403472;28;20366;-79
2023/06/24 12:40:41;;;;;;;3.03;1.83;;;;;;;-147.65;100.00;57646.63;10403011;28;19924;-79
2023/06/24 12:45:45;;;;;;;4.22;2.20;;;;;;;-147.65;100.00;57646.63;10403159;28;20052;-80
2023/06/24 12:50:47;;;;;;;3.85;1.60;;;;;;;-147.65;100.00;57646.63;10402551;28;20045;-80
2023/06/24 12:55:48;;;;;;;3.88;1.77;;;;;;;-147.65;100.00;57646.63;10402363;28;20070;-79
2023/06/24 13:00:49;;;;;;;4.60;2.83;;;;;;;-147.65;100.00;57646.63;10403049;28;20102;-79
2023/06/24 13:05:49;;;;;;;;;;;;;;;-147.65;100.00;57646.63;10402782;28;20034;-80
2023/06/24 13:10:50;;;;;;;4.03;2.63;;;;;;;-147.65;100.00;57646.63;10401673;28;20434;-80
2023/06/24 13:15:50;;;;;;;;;;;;;;;-147.65;100.00;57646.63;10402597;28;20569;-79
2023/06/24 13:20:51;;;;;;;5.03;2.57;;;;;;;-147.65;100.00;57646.63;10401597;28;19968;-78
2023/06/24 13:25:51;;;;;;;;;;;;;;;-147.65;100.00;57646.63;10402810;28;20053;-79
2023/06/24 13:30:54;;;;;;;6.37;1.90;;;;;;;-147.65;100.00;57646.63;10401469;28;20365;-81
2023/06/24 13:35:55;;;;;;;3.33;2.25;;;;;;;-147.65;100.00;57646.63;10410729;28;20129;-80
2023/06/24 13:40:55;;;;;;;4.88;2.40;;;;;;;-147.65;100.00;57646.63;10409463;28;20124;-80
2023/06/24 13:45:56;;;;;;;;;;;;;;;-147.65;100.00;57646.63;10409924;28;20168;-80
2023/06/24 13:50:56;;;;;;;4.67;2.23;;;;;;;-147.65;100.00;57646.63;10409473;28;19923;-80
2023/06/24 13:55:57;;;;;;;;;;;;;;;-147.65;100.00;57646.63;10410728;28;20124;-79
2023/06/24 14:00:57;;;;;;;5.38;2.75;;;;;;;-147.65;100.00;57646.63;10395956;28;20019;-79
2023/06/24 14:05:58;;;;;;;;;;;;;;;-147.65;100.00;57646.63;10376427;28;20103;-78
2023/06/24 14:10:59;;;;;;;5.20;1.90;;;;;;;-147.65;100.00;57646.63;10408491;28;19924;-78
2023/06/24 14:15:59;;;;;;;5.05;2.05;;;;;;;-147.65;100.00;57646.63;10406897;28;20102;-78
2023/06/24 14:21:00;;;;;;;3.40;1.90;;;;;;;-147.65;100.00;57646.63;10407663;28;20049;-78
2023/06/24 14:26:01;;;;;;;4.40;2.05;;;;;;;-147.65;100.00;57646.63;10408421;28;20037;-79
2023/06/24 14:31:01;;;;;;;8.02;1.98;;;;;;;-147.65;100.00;57646.63;10408311;28;20041;-78
2023/06/24 14:36:02;;;;;;;4.28;2.47;;;;;;;-147.65;100.00;57646.63;10407576;28;20388;-79
2023/06/24 14:41:03;;;;;;;4.57;1.73;;;;;;;-147.65;100.00;57646.63;10407251;28;20107;-78
2023/06/24 14:46:03;;;;;;;6.53;2.20;;;;;;;-147.65;100.00;57646.63;10405915;28;20071;-79
2023/06/24 14:51:04;;;;;;;3.80;1.90;;;;;;;-147.65;100.00;57646.63;10406557;28;20314;-79
2023/06/24 14:56:05;;;;;;;2.97;1.93;;;;;;;-147.65;100.00;57646.63;10405678;28;20033;-79
2023/06/24 15:01:05;;;;;;;5.72;2.03;;;;;;;-147.65;100.00;57646.63;10407130;28;20751;-79
2023/06/24 15:06:06;;;;;;;5.33;2.33;;;;;;;-147.65;100.00;57646.63;10407543;28;20034;-79
2023/06/24 15:11:06;;;;;;;3.10;1.80;;;;;;;-147.65;100.00;57646.63;10406024;28;20033;-78
2023/06/24 15:16:07;;;;;;;3.90;2.07;;;;;;;-147.65;100.00;57646.63;10406873;28;20477;-78
2023/06/24 15:21:07;;;;;;;5.63;2.53;;;;;;;-147.65;100.00;57646.63;10405827;28;20033;-79
2023/06/24 15:26:08;;;;;;;4.37;2.20;;;;;;;-147.65;100.00;57646.63;10406018;28;20436;-79
2023/06/24 15:31:08;;;;;;;4.93;2.13;;;;;;;-147.65;100.00;57646.63;10403815;28;20047;-79
2023/06/24 15:36:09;;;;;;;3.80;2.70;;;;;;;-147.65;100.00;57646.63;10391338;28;20116;-86
2023/06/24 15:41:10;;;;;;;6.33;2.00;;;;;;;-147.65;100.00;57646.63;10401157;28;20048;-80
2023/06/24 15:46:10;;;;;;;3.80;2.60;;;;;;;-147.65;100.00;57646.63;10406739;28;20042;-79
2023/06/24 15:51:11;;;;;;;7.13;2.40;;;;;;;-147.65;100.00;57646.63;10387925;28;20042;-80
2023/06/24 15:56:11;;;;;;;5.87;2.40;;;;;;;-147.65;100.00;57646.63;10362148;28;20390;-79
2023/06/24 16:01:12;;;;;;;4.30;2.13;;;;;;;-147.65;100.00;57646.63;10322779;28;20048;-81
2023/06/24 16:06:13;;;;;;;4.30;2.47;;;;;;;-147.65;100.00;57646.63;10337153;28;20043;-80
2023/06/24 16:11:13;;;;;;;4.03;2.63;;;;;;;-147.65;100.00;57646.63;10323033;28;20101;-80
2023/06/24 16:16:14;;;;;;;4.97;2.27;;;;;;;-147.65;100.00;57646.63;10320999;28;20042;-79
2023/06/24 16:21:14;;;;;;;4.67;1.97;;;;;;;-147.65;100.00;57646.63;10383574;28;21051;-80
2023/06/24 16:26:15;;;;;;;3.43;2.33;;;;;;;-147.65;100.00;57646.63;10411126;28;20033;-80
2023/06/24 16:31:16;;;;;;;4.90;2.27;;;;;;;-147.65;100.00;57646.63;10404835;28;20033;-81
2023/06/24 16:36:17;;;;;;;2.80;1.60;;;;;;;-147.65;100.00;57646.63;10401508;28;20132;-80
2023/06/24 16:41:17;;;;;;;3.97;2.53;;;;;;;-147.65;100.00;57646.63;10402019;28;20043;-81
2023/06/24 16:46:18;;;;;;;3.13;2.07;;;;;;;-147.65;100.00;57646.63;10398662;28;20389;-84
2023/06/24 16:51:18;;;;;;;3.57;2.30;;;;;;;-147.65;100.00;57646.63;10393503;28;20045;-82
2023/06/24 16:56:19;;;;;;;4.93;2.47;;;;;;;-147.65;100.00;57646.63;10395437;28;20110;-81
2023/06/24 17:01:20;;;;;;;3.07;2.10;;;;;;;-147.65;100.00;57646.63;10365895;28;20072;-80
2023/06/24 17:06:20;;;;;;;3.23;1.80;;;;;;;-147.65;100.00;57646.63;10372424;28;20485;-81
2023/06/24 17:11:22;;;;;;;7.70;2.43;;;;;;;-147.65;100.00;57646.63;10364218;28;20573;-80
2023/06/24 17:16:23;;;;;;;5.57;2.38;;;;;;;-147.65;100.00;57646.63;10396614;28;20049;-81
2023/06/24 17:21:24;;;;;;;7.43;3.13;;;;;;;-147.65;100.00;57646.63;10399600;28;20049;-80
2023/06/24 17:26:25;;;;;;;4.20;2.07;;;;;;;-147.65;100.00;57646.63;10411076;28;20042;-79
2023/06/24 17:31:26;;;;;;;5.32;2.20;;;;;;;-147.65;100.00;57646.63;10400859;28;20052;-81
2023/06/24 17:36:27;;;;;;;4.80;2.10;;;;;;;-147.65;100.00;57646.63;10398341;28;20056;-81
2023/06/24 17:41:28;;;;;;;;;;;;;;;-147.65;100.00;57646.63;10401720;28;20095;-81
2023/06/24 17:46:28;;;;;;;6.22;2.72;;;;;;;-147.65;100.00;57646.63;10395946;28;19970;-80
2023/06/24 17:51:29;;;;;;;6.33;2.37;;;;;;;-147.65;100.00;57646.63;10399175;28;20456;-80
2023/06/24 17:56:30;;;;;;;5.63;2.45;;;;;;;-147.65;100.00;57646.63;10397367;28;20549;-81
2023/06/24 18:01:30;;;;;;;5.40;3.20;;;;;;;-147.65;100.00;57646.63;10401465;28;20041;-81
2023/06/24 18:06:31;;;;;;;6.40;2.63;;;;;;;-147.65;100.00;57646.63;10397401;28;20447;-79
2023/06/24 18:11:32;;;;;;;10.33;3.33;;;;;;;-147.65;100.00;57646.63;10432409;28;20041;-79
2023/06/24 18:16:32;;;;;;;3.80;2.50;;;;;;;-147.65;100.00;57646.63;10441750;28;20495;-81
2023/06/24 18:21:33;;;;;;;5.13;2.67;;;;;;;-147.65;100.00;57646.63;10399059;28;20045;-79
2023/06/24 18:26:33;;;;;;;4.27;2.40;;;;;;;-147.65;100.00;57646.63;10396948;28;20120;-79
2023/06/24 18:31:34;;;;;;;7.40;2.57;;;;;;;-147.65;100.00;57646.63;10368441;28;20117;-79
2023/06/24 18:36:34;;;;;;;4.43;2.60;;;;;;;-147.65;100.00;57646.63;10399692;28;20060;-81
2023/06/24 18:41:35;;;;;;;4.03;2.70;;;;;;;-147.65;100.00;57646.63;10448803;28;20532;-81
2023/06/24 18:46:35;;;;;;;5.15;3.25;;;;;;;-147.65;100.00;57646.63;10438079;28;20084;-82
2023/06/24 18:51:36;;;;;;;5.93;2.30;;;;;;;-147.65;100.00;57646.63;10422843;28;20037;-82
2023/06/24 18:56:37;;;;;;;20.00;4.57;;;;;;;-147.65;100.00;57646.63;10377830;28;20030;-81
2023/06/24 19:01:38;;;;;;;10.33;2.67;;;;;;;-147.65;100.00;57646.63;10405770;28;20481;-82
2023/06/24 19:06:39;;;;;;;7.97;3.70;;;;;;;-147.65;100.00;57646.63;10381002;28;20068;-83
2023/06/24 19:11:39;;;;;;;11.25;3.78;;;;;;;-147.65;100.00;57646.63;10409410;28;20042;-82
2023/06/24 19:16:40;;;;;;;5.78;3.13;;;;;;;-147.65;100.00;57646.63;10358726;28;20181;-82
2023/06/24 19:21:40;;;;;;;8.57;3.10;;;;;;;-147.65;100.00;57646.63;10375961;28;20069;-82
2023/06/24 19:26:41;;;;;;;8.32;4.05;;;;;;;-147.65;100.00;57646.63;10375635;28;20052;-81
2023/06/24 19:31:41;;;;;;;4.47;2.03;;;;;;;-147.65;100.00;57646.63;10417803;28;20045;-81
2023/06/24 19:36:42;;;;;;;4.65;2.63;;;;;;;-147.65;100.00;57646.63;10407303;28;20049;-81
2023/06/24 19:41:42;;;;;;;4.57;3.05;;;;;;;-147.65;100.00;57646.63;10402025;28;20072;-81
2023/06/24 19:46:43;;;;;;;6.50;2.67;;;;;;;-147.65;100.00;57646.63;10418655;28;20041;-86
2023/06/24 19:51:43;;;;;;;5.68;2.40;;;;;;;-147.65;100.00;57646.63;10405217;28;20132;-85
2023/06/24 19:56:44;;;;;;;5.95;2.75;;;;;;;-147.65;100.00;57646.63;10413832;28;20381;-83
2023/06/24 20:01:44;;;;;;;5.72;3.63;;;;;;;-147.65;100.00;57646.63;10406145;28;20033;-83
2023/06/24 20:06:45;;;;;;;6.75;2.30;;;;;;;-147.65;100.00;57646.63;10371346;28;20037;-84
2023/06/24 20:11:45;;;;;;;5.05;3.03;;;;;;;-147.65;100.00;57646.63;10406240;28;20481;-83
2023/06/24 20:16:46;;;;;;;7.55;3.50;;;;;;;-147.65;100.00;57646.63;10406759;28;20055;-83
2023/06/24 20:21:46;;;;;;;6.00;2.58;;;;;;;-147.65;100.00;57646.63;10418652;28;20038;-81
2023/06/24 20:26:47;;;;;;;5.53;2.92;;;;;;;-147.65;100.00;57646.63;10394437;28;20044;-78
2023/06/24 20:31:47;;;;;;;9.52;3.05;;;;;;;-147.65;100.00;57646.63;10374989;28;20055;-84
2023/06/24 20:36:49;;;;;;;4.97;2.47;;;;;;;-147.65;100.00;57646.63;10411396;28;20056;-82
2023/06/24 20:41:49;;;;;;;4.32;2.42;;;;;;;-147.65;100.00;57646.63;10418730;28;20037;-83
2023/06/24 20:46:50;;;;;;;5.50;2.70;;;;;;;-147.65;100.00;57646.63;10416911;28;20125;-83
2023/06/24 20:51:51;;;;;;;4.80;2.90;;;;;;;-147.65;100.00;57646.63;10428505;28;20060;-84
2023/06/24 20:56:51;;;;;;;4.35;3.28;;;;;;;-147.65;100.00;57646.63;10394009;28;20129;-83
2023/06/24 21:01:52;;;;;;;6.22;3.28;;;;;;;-147.65;100.00;57646.63;10364926;28;20076;-84
2023/06/24 21:06:52;;;;;;;5.25;3.17;;;;;;;-147.65;100.00;57646.63;10443453;28;20041;-83
2023/06/24 21:11:53;;;;;;;9.27;4.82;;;;;;;-147.65;100.00;57646.63;10441201;28;20105;-83
2023/06/24 21:16:53;;;;;;;10.65;5.82;;;;;;;-147.65;100.00;57646.63;10403156;28;20037;-82
2023/06/24 21:21:54;;;;;;;6.45;3.97;;;;;;;-147.65;100.00;57646.63;10439713;28;20488;-84
2023/06/24 21:26:54;;;;;;;6.50;3.22;;;;;;;-147.65;100.00;57646.63;10402811;28;20046;-83
2023/06/24 21:31:55;;;;;;;10.07;4.45;;;;;;;-147.65;100.00;57646.63;10397951;28;20164;-84
2023/06/24 21:36:55;;;;;;;10.63;4.43;;;;;;;-147.65;100.00;57646.63;10411164;28;20037;-84
2023/06/24 21:41:56;;;;;;;5.90;2.85;;;;;;;-147.65;100.00;57646.63;10432233;28;20414;-84
2023/06/24 21:46:56;;;;;;;9.20;4.78;;;;;;;-147.65;100.00;57646.63;10438410;28;20048;-84
2023/06/24 21:51:57;;;;;;;17.40;3.28;;;;;;;-147.65;100.00;57646.63;10390521;28;20059;-79
2023/06/24 21:56:58;;;;;;;5.20;3.45;;;;;;;-147.65;100.00;57646.63;10450877;28;20041;-78
2023/06/24 22:01:58;;;;;;;6.45;3.03;;;;;;;-147.65;100.00;57646.63;10408597;28;20124;-84
2023/06/24 22:06:59;;;;;;;8.63;3.70;;;;;;;-147.65;100.00;57646.63;10411604;28;20124;-83
2023/06/24 22:12:00;;;;;;;7.30;4.28;;;;;;;-147.65;100.00;57646.63;10408800;28;20056;-84
2023/06/24 22:17:01;;;;;;;6.00;4.20;;;;;;;-147.65;100.00;57646.63;10410133;28;20094;-84
2023/06/24 22:22:01;;;;;;;7.55;3.40;;;;;;;-147.65;100.00;57646.63;10435763;28;20033;-84
2023/06/24 22:27:02;;;;;;;5.85;3.75;;;;;;;-147.65;100.00;57646.63;10449591;28;20536;-84
2023/06/24 22:32:02;;;;;;;6.53;4.28;;;;;;;-147.65;100.00;57646.63;10413521;28;20038;-84